sensor_id;sensor_type;location;lat;lon;timestamp;pressure;altitude;pressure_sealevel;temperature;humidity
4590;BME280;2307;48.448;9.216;2023-03-16T00:02:15;95677.03;;;1.82;100.00
4590;BME280;2307;48.448;9.216;2023-03-16T00:04:41;95677.59;;;1.92;100.00
4590;BME280;2307;48.448;9.216;2023-03-16T00:07:12;95670.06;;;1.97;100.00
4590;BME280;2307;48.448;9.216;2023-03-16T00:09:38;95677.66;;;1.84;100.00
4590;BME280;2307;48.448;9.216;2023-03-16T00:12:06;95680.06;;;1.71;100.00
4590;BME280;2307;48.448;9.216;2023-03-16T00:14:39;95683.41;;;1.80;100.00
4590;BME280;2307;48.448;9.216;2023-03-16T00:17:07;95682.66;;;1.71;100.00
4590;BME280;2307;48.448;9.216;2023-03-16T00:19:34;95682.69;;;1.63;100.00
4590;BME280;2307;48.448;9.216;2023-03-16T00:22:00;95677.13;;;1.66;100.00
4590;BME280;2307;48.448;9.216;2023-03-16T00:24:26;95679.59;;;1.68;100.00
4590;BME280;2307;48.448;9.216;2023-03-16T00:26:53;95680.97;;;1.78;100.00
4590;BME280;2307;48.448;9.216;2023-03-16T00:29:19;95683.88;;;1.83;100.00
4590;BME280;2307;48.448;9.216;2023-03-16T00:31:46;95678.31;;;1.86;100.00
4590;BME280;2307;48.448;9.216;2023-03-16T00:34:14;95681.19;;;1.91;100.00
4590;BME280;2307;48.448;9.216;2023-03-16T00:36:41;95680.84;;;1.94;100.00
4590;BME280;2307;48.448;9.216;2023-03-16T00:39:07;95693.59;;;1.89;100.00
4590;BME280;2307;48.448;9.216;2023-03-16T00:41:35;95676.41;;;1.80;100.00
4590;BME280;2307;48.448;9.216;2023-03-16T00:44:02;95679.72;;;1.74;100.00
4590;BME280;2307;48.448;9.216;2023-03-16T00:46:28;95688.38;;;1.67;100.00
4590;BME280;2307;48.448;9.216;2023-03-16T00:48:55;95685.91;;;1.65;100.00
4590;BME280;2307;48.448;9.216;2023-03-16T00:51:22;95676.19;;;1.59;100.00
4590;BME280;2307;48.448;9.216;2023-03-16T00:53:49;95682.69;;;1.63;100.00
4590;BME280;2307;48.448;9.216;2023-03-16T00:56:15;95678.09;;;1.65;100.00
4590;BME280;2307;48.448;9.216;2023-03-16T00:58:42;95676.78;;;1.69;100.00
4590;BME280;2307;48.448;9.216;2023-03-16T01:01:09;95668.69;;;1.64;100.00
4590;BME280;2307;48.448;9.216;2023-03-16T01:03:36;95679.72;;;1.74;100.00
4590;BME280;2307;48.448;9.216;2023-03-16T01:06:03;95672.25;;;1.71;100.00
4590;BME280;2307;48.448;9.216;2023-03-16T01:08:31;95677.13;;;1.66;100.00
4590;BME280;2307;48.448;9.216;2023-03-16T01:11:01;95672.56;;;1.68;100.00
4590;BME280;2307;48.448;9.216;2023-03-16T01:13:27;95672.56;;;1.68;100.00
4590;BME280;2307;48.448;9.216;2023-03-16T01:15:54;95679.47;;;1.61;100.00
4590;BME280;2307;48.448;9.216;2023-03-16T01:18:20;95671.13;;;1.66;100.00
4590;BME280;2307;48.448;9.216;2023-03-16T01:20:47;95663.84;;;1.61;100.00
4590;BME280;2307;48.448;9.216;2023-03-16T01:23:15;95661.88;;;1.63;100.00
4590;BME280;2307;48.448;9.216;2023-03-16T01:25:43;95666.69;;;1.74;100.00
4590;BME280;2307;48.448;9.216;2023-03-16T01:28:16;95666.38;;;1.69;100.00
4590;BME280;2307;48.448;9.216;2023-03-16T01:30:43;95660.81;;;1.72;100.00
4590;BME280;2307;48.448;9.216;2023-03-16T01:33:09;95658.88;;;1.74;100.00
4590;BME280;2307;48.448;9.216;2023-03-16T01:35:35;95651.81;;;1.83;100.00
4590;BME280;2307;48.448;9.216;2023-03-16T01:38:02;95662.47;;;1.73;100.00
4590;BME280;2307;48.448;9.216;2023-03-16T01:40:29;95669.91;;;1.76;100.00
4590;BME280;2307;48.448;9.216;2023-03-16T01:43:00;95662.81;;;1.70;100.00
4590;BME280;2307;48.448;9.216;2023-03-16T01:48:13;95665.41;;;1.70;100.00
4590;BME280;2307;48.448;9.216;2023-03-16T01:50:39;95652.84;;;1.74;100.00
4590;BME280;2307;48.448;9.216;2023-03-16T01:53:07;95654.81;;;1.72;100.00
4590;BME280;2307;48.448;9.216;2023-03-16T01:55:33;95658.53;;;1.77;100.00
4590;BME280;2307;48.448;9.216;2023-03-16T01:58:01;95651.22;;;1.73;100.00
4590;BME280;2307;48.448;9.216;2023-03-16T02:00:28;95648.13;;;1.77;100.00
4590;BME280;2307;48.448;9.216;2023-03-16T02:02:57;95652.31;;;1.78;100.00
4590;BME280;2307;48.448;9.216;2023-03-16T02:05:28;95644.56;;;1.70;100.00
4590;BME280;2307;48.448;9.216;2023-03-16T02:07:57;95655.00;;;1.70;100.00
4590;BME280;2307;48.448;9.216;2023-03-16T02:10:25;95648.63;;;1.73;100.00
4590;BME280;2307;48.448;9.216;2023-03-16T02:12:53;95642.66;;;1.64;100.00
4590;BME280;2307;48.448;9.216;2023-03-16T02:15:20;95638.09;;;1.66;100.00
4590;BME280;2307;48.448;9.216;2023-03-16T02:17:47;95624.38;;;1.72;100.00
4590;BME280;2307;48.448;9.216;2023-03-16T02:20:18;95624.38;;;1.72;100.00
4590;BME280;2307;48.448;9.216;2023-03-16T02:22:48;95625.88;;;1.67;100.00
4590;BME280;2307;48.448;9.216;2023-03-16T02:25:18;95631.44;;;1.64;100.00
4590;BME280;2307;48.448;9.216;2023-03-16T02:27:48;95612.69;;;1.68;100.00
4590;BME280;2307;48.448;9.216;2023-03-16T02:30:19;95614.44;;;1.76;100.00
4590;BME280;2307;48.448;9.216;2023-03-16T02:32:47;95605.44;;;1.78;100.00
4590;BME280;2307;48.448;9.216;2023-03-16T02:35:16;95605.09;;;1.81;100.00
4590;BME280;2307;48.448;9.216;2023-03-16T02:37:42;95601.72;;;1.81;100.00
4590;BME280;2307;48.448;9.216;2023-03-16T02:40:15;95591.72;;;1.84;100.00
4590;BME280;2307;48.448;9.216;2023-03-16T02:42:43;95590.13;;;1.83;100.00
4590;BME280;2307;48.448;9.216;2023-03-16T02:45:09;95597.59;;;1.86;100.00
4590;BME280;2307;48.448;9.216;2023-03-16T02:47:39;95584.91;;;1.83;100.00
4590;BME280;2307;48.448;9.216;2023-03-16T02:50:08;95585.44;;;1.79;100.00
4590;BME280;2307;48.448;9.216;2023-03-16T02:52:35;95597.41;;;1.88;100.00
4590;BME280;2307;48.448;9.216;2023-03-16T02:55:02;95601.78;;;1.87;100.00
4590;BME280;2307;48.448;9.216;2023-03-16T02:57:28;95605.50;;;1.93;100.00
4590;BME280;2307;48.448;9.216;2023-03-16T02:59:55;95602.13;;;1.84;100.00
4590;BME280;2307;48.448;9.216;2023-03-16T03:02:22;95609.78;;;1.86;100.00
4590;BME280;2307;48.448;9.216;2023-03-16T03:04:50;95612.19;;;1.87;100.00
4590;BME280;2307;48.448;9.216;2023-03-16T03:07:19;95613.84;;;1.88;100.00
4590;BME280;2307;48.448;9.216;2023-03-16T03:09:45;95615.47;;;1.89;100.00
4590;BME280;2307;48.448;9.216;2023-03-16T03:12:12;95603.41;;;1.88;100.00
4590;BME280;2307;48.448;9.216;2023-03-16T03:14:38;95603.41;;;1.88;100.00
4590;BME280;2307;48.448;9.216;2023-03-16T03:17:05;95601.34;;;1.84;100.00
4590;BME280;2307;48.448;9.216;2023-03-16T03:19:32;95597.03;;;1.91;100.00
4590;BME280;2307;48.448;9.216;2023-03-16T03:22:00;95597.75;;;1.85;100.00
4590;BME280;2307;48.448;9.216;2023-03-16T03:24:30;95589.56;;;1.88;100.00
4590;BME280;2307;48.448;9.216;2023-03-16T03:26:57;95582.59;;;1.88;100.00
4590;BME280;2307;48.448;9.216;2023-03-16T03:29:24;95582.59;;;1.88;100.00
4590;BME280;2307;48.448;9.216;2023-03-16T03:31:58;95571.91;;;1.83;100.00
4590;BME280;2307;48.448;9.216;2023-03-16T03:34:25;95582.94;;;1.85;100.00
4590;BME280;2307;48.448;9.216;2023-03-16T03:36:51;95566.34;;;1.86;100.00
4590;BME280;2307;48.448;9.216;2023-03-16T03:39:19;95576.91;;;1.85;100.00
4590;BME280;2307;48.448;9.216;2023-03-16T03:41:45;95579.34;;;1.86;100.00
4590;BME280;2307;48.448;9.216;2023-03-16T03:44:12;95574.84;;;1.80;100.00
4590;BME280;2307;48.448;9.216;2023-03-16T03:46:38;95567.66;;;1.82;100.00
4590;BME280;2307;48.448;9.216;2023-03-16T03:49:05;95572.25;;;1.80;100.00
4590;BME280;2307;48.448;9.216;2023-03-16T03:51:31;95572.41;;;1.79;100.00
4590;BME280;2307;48.448;9.216;2023-03-16T03:53:58;95566.84;;;1.82;100.00
4590;BME280;2307;48.448;9.216;2023-03-16T03:56:26;95565.94;;;1.75;100.00
4590;BME280;2307;48.448;9.216;2023-03-16T03:58:52;95561.91;;;1.72;100.00
4590;BME280;2307;48.448;9.216;2023-03-16T04:01:19;95563.16;;;1.76;100.00
4590;BME280;2307;48.448;9.216;2023-03-16T04:03:45;95555.97;;;1.78;100.00
4590;BME280;2307;48.448;9.216;2023-03-16T04:06:12;95561.47;;;1.83;100.00
4590;BME280;2307;48.448;9.216;2023-03-16T04:08:38;95566.34;;;1.86;100.00
4590;BME280;2307;48.448;9.216;2023-03-16T04:11:04;95568.47;;;1.83;100.00
4590;BME280;2307;48.448;9.216;2023-03-16T04:13:32;95571.19;;;1.89;100.00
4590;BME280;2307;48.448;9.216;2023-03-16T04:15:59;95564.34;;;1.88;100.00
4590;BME280;2307;48.448;9.216;2023-03-16T04:18:27;95558.16;;;1.89;100.00
4590;BME280;2307;48.448;9.216;2023-03-16T04:20:53;95555.56;;;1.89;100.00
4590;BME280;2307;48.448;9.216;2023-03-16T04:23:20;95549.03;;;1.93;100.00
4590;BME280;2307;48.448;9.216;2023-03-16T04:25:46;95550.34;;;1.89;100.00
4590;BME280;2307;48.448;9.216;2023-03-16T04:28:13;95545.25;;;1.96;100.00
4590;BME280;2307;48.448;9.216;2023-03-16T04:30:43;95543.09;;;1.99;100.00
4590;BME280;2307;48.448;9.216;2023-03-16T04:33:09;95540.84;;;1.96;100.00
4590;BME280;2307;48.448;9.216;2023-03-16T04:35:36;95542.44;;;1.97;100.00
4590;BME280;2307;48.448;9.216;2023-03-16T04:38:02;95548.66;;;1.96;100.00
4590;BME280;2307;48.448;9.216;2023-03-16T04:40:28;95548.66;;;1.96;100.00
4590;BME280;2307;48.448;9.216;2023-03-16T04:42:55;95542.66;;;1.96;100.00
4590;BME280;2307;48.448;9.216;2023-03-16T04:45:21;95535.34;;;1.91;100.00
4590;BME280;2307;48.448;9.216;2023-03-16T04:47:49;95540.56;;;1.91;100.00
4590;BME280;2307;48.448;9.216;2023-03-16T04:50:16;95534.09;;;1.87;100.00
4590;BME280;2307;48.448;9.216;2023-03-16T04:52:51;95530.41;;;1.82;100.00
4590;BME280;2307;48.448;9.216;2023-03-16T04:55:20;95535.59;;;1.82;100.00
4590;BME280;2307;48.448;9.216;2023-03-16T04:57:46;95535.59;;;1.82;100.00
4590;BME280;2307;48.448;9.216;2023-03-16T05:00:13;95533.47;;;1.85;100.00
4590;BME280;2307;48.448;9.216;2023-03-16T05:02:43;95532.38;;;1.80;100.00
4590;BME280;2307;48.448;9.216;2023-03-16T05:05:12;95538.06;;;1.83;100.00
4590;BME280;2307;48.448;9.216;2023-03-16T05:07:39;95530.50;;;1.88;100.00
4590;BME280;2307;48.448;9.216;2023-03-16T05:10:07;95535.53;;;1.90;100.00
4590;BME280;2307;48.448;9.216;2023-03-16T05:12:33;95527.28;;;1.86;100.00
4590;BME280;2307;48.448;9.216;2023-03-16T05:15:00;95532.84;;;1.83;100.00
4590;BME280;2307;48.448;9.216;2023-03-16T05:17:26;95523.13;;;1.77;100.00
4590;BME280;2307;48.448;9.216;2023-03-16T05:19:53;95537.13;;;1.76;100.00
4590;BME280;2307;48.448;9.216;2023-03-16T05:22:20;95526.72;;;1.76;100.00
4590;BME280;2307;48.448;9.216;2023-03-16T05:24:47;95535.16;;;1.78;100.00
4590;BME280;2307;48.448;9.216;2023-03-16T05:27:14;95539.53;;;1.78;100.00
4590;BME280;2307;48.448;9.216;2023-03-16T05:29:40;95534.34;;;1.78;100.00
4590;BME280;2307;48.448;9.216;2023-03-16T05:32:18;95537.59;;;1.80;100.00
4590;BME280;2307;48.448;9.216;2023-03-16T05:35:11;95533.19;;;1.80;100.00
4590;BME280;2307;48.448;9.216;2023-03-16T05:37:40;95535.97;;;1.79;100.00
4590;BME280;2307;48.448;9.216;2023-03-16T05:40:07;95535.00;;;1.80;100.00
4590;BME280;2307;48.448;9.216;2023-03-16T05:42:41;95531.56;;;1.79;100.00
4590;BME280;2307;48.448;9.216;2023-03-16T05:45:08;95535.72;;;1.88;100.00
4590;BME280;2307;48.448;9.216;2023-03-16T05:47:35;95534.91;;;1.88;100.00
4590;BME280;2307;48.448;9.216;2023-03-16T05:50:01;95537.34;;;1.89;100.00
4590;BME280;2307;48.448;9.216;2023-03-16T05:52:28;95532.13;;;1.89;100.00
4590;BME280;2307;48.448;9.216;2023-03-16T05:57:32;95519.72;;;1.91;100.00
4590;BME280;2307;48.448;9.216;2023-03-16T05:59:59;95523.59;;;1.81;100.00
4590;BME280;2307;48.448;9.216;2023-03-16T06:02:25;95523.91;;;1.78;100.00
4590;BME280;2307;48.448;9.216;2023-03-16T06:04:52;95526.53;;;1.78;100.00
4590;BME280;2307;48.448;9.216;2023-03-16T06:07:18;95521.97;;;1.80;100.00
4590;BME280;2307;48.448;9.216;2023-03-16T06:09:45;95531.47;;;1.87;100.00
4590;BME280;2307;48.448;9.216;2023-03-16T06:12:12;95528.50;;;1.90;100.00
4590;BME280;2307;48.448;9.216;2023-03-16T06:14:40;95526.91;;;1.89;100.00
4590;BME280;2307;48.448;9.216;2023-03-16T06:17:06;95527.91;;;1.88;100.00
4590;BME280;2307;48.448;9.216;2023-03-16T06:19:33;95523.84;;;1.86;100.00
4590;BME280;2307;48.448;9.216;2023-03-16T06:21:59;95527.09;;;1.88;100.00
4590;BME280;2307;48.448;9.216;2023-03-16T06:24:25;95521.97;;;1.94;100.00
4590;BME280;2307;48.448;9.216;2023-03-16T06:26:52;95536.63;;;1.95;100.00
4590;BME280;2307;48.448;9.216;2023-03-16T06:29:18;95525.22;;;1.96;100.00
4590;BME280;2307;48.448;9.216;2023-03-16T06:31:46;95527.13;;;2.02;100.00
4590;BME280;2307;48.448;9.216;2023-03-16T06:34:15;95531.50;;;2.02;100.00
4590;BME280;2307;48.448;9.216;2023-03-16T06:36:41;95529.88;;;2.01;100.00
4590;BME280;2307;48.448;9.216;2023-03-16T06:39:08;95528.00;;;2.09;100.00
4590;BME280;2307;48.448;9.216;2023-03-16T06:41:34;95532.22;;;2.10;100.00
4590;BME280;2307;48.448;9.216;2023-03-16T06:44:02;95524.41;;;2.10;100.00
4590;BME280;2307;48.448;9.216;2023-03-16T06:46:30;95527.31;;;2.16;100.00
4590;BME280;2307;48.448;9.216;2023-03-16T06:48:58;95521.28;;;2.15;100.00
4590;BME280;2307;48.448;9.216;2023-03-16T06:51:25;95532.84;;;2.12;100.00
4590;BME280;2307;48.448;9.216;2023-03-16T06:53:51;95534.47;;;2.13;100.00
4590;BME280;2307;48.448;9.216;2023-03-16T06:56:18;95534.13;;;2.17;100.00
4590;BME280;2307;48.448;9.216;2023-03-16T06:58:44;95530.06;;;2.29;100.00
4590;BME280;2307;48.448;9.216;2023-03-16T07:01:11;95538.25;;;2.26;100.00
4590;BME280;2307;48.448;9.216;2023-03-16T07:03:37;95537.16;;;2.35;100.00
4590;BME280;2307;48.448;9.216;2023-03-16T07:06:05;95535.19;;;2.37;100.00
4590;BME280;2307;48.448;9.216;2023-03-16T07:08:32;95540.31;;;2.45;100.00
4590;BME280;2307;48.448;9.216;2023-03-16T07:10:59;95536.81;;;2.52;100.00
4590;BME280;2307;48.448;9.216;2023-03-16T07:13:25;95531.38;;;2.54;100.00
4590;BME280;2307;48.448;9.216;2023-03-16T07:15:52;95535.63;;;2.55;100.00
4590;BME280;2307;48.448;9.216;2023-03-16T07:18:18;95547.22;;;2.52;100.00
4590;BME280;2307;48.448;9.216;2023-03-16T07:20:44;95538.59;;;2.52;100.00
4590;BME280;2307;48.448;9.216;2023-03-16T07:23:13;95540.88;;;2.40;100.00
4590;BME280;2307;48.448;9.216;2023-03-16T07:25:39;95550.03;;;2.36;100.00
4590;BME280;2307;48.448;9.216;2023-03-16T07:28:06;95546.53;;;2.44;100.00
4590;BME280;2307;48.448;9.216;2023-03-16T07:30:32;95556.47;;;2.55;100.00
4590;BME280;2307;48.448;9.216;2023-03-16T07:32:58;95551.56;;;2.60;100.00
4590;BME280;2307;48.448;9.216;2023-03-16T07:35:25;95556.75;;;2.60;100.00
4590;BME280;2307;48.448;9.216;2023-03-16T07:37:52;95556.41;;;2.63;100.00
4590;BME280;2307;48.448;9.216;2023-03-16T07:40:20;95553.16;;;2.61;100.00
4590;BME280;2307;48.448;9.216;2023-03-16T07:42:47;95565.19;;;2.62;100.00
4590;BME280;2307;48.448;9.216;2023-03-16T07:45:14;95559.63;;;2.65;100.00
4590;BME280;2307;48.448;9.216;2023-03-16T07:47:42;95564.91;;;2.72;100.00
4590;BME280;2307;48.448;9.216;2023-03-16T07:50:09;95558.44;;;2.82;100.00
4590;BME280;2307;48.448;9.216;2023-03-16T07:52:35;95563.53;;;2.90;100.00
4590;BME280;2307;48.448;9.216;2023-03-16T07:55:02;95568.38;;;2.93;100.00
4590;BME280;2307;48.448;9.216;2023-03-16T07:57:30;95565.94;;;3.06;100.00
4590;BME280;2307;48.448;9.216;2023-03-16T07:59:57;95564.38;;;3.12;100.00
4590;BME280;2307;48.448;9.216;2023-03-16T08:02:23;95563.03;;;3.16;100.00
4590;BME280;2307;48.448;9.216;2023-03-16T08:04:50;95557.88;;;3.22;100.00
4590;BME280;2307;48.448;9.216;2023-03-16T08:07:16;95560.22;;;3.17;100.00
4590;BME280;2307;48.448;9.216;2023-03-16T08:09:43;95556.00;;;3.16;100.00
4590;BME280;2307;48.448;9.216;2023-03-16T08:12:10;95561.84;;;3.18;100.00
4590;BME280;2307;48.448;9.216;2023-03-16T08:14:38;95560.94;;;3.26;100.00
4590;BME280;2307;48.448;9.216;2023-03-16T08:17:04;95556.16;;;3.30;100.00
4590;BME280;2307;48.448;9.216;2023-03-16T08:19:31;95557.38;;;3.34;100.00
4590;BME280;2307;48.448;9.216;2023-03-16T08:21:58;95557.25;;;3.42;100.00
4590;BME280;2307;48.448;9.216;2023-03-16T08:24:25;95566.69;;;3.43;100.00
4590;BME280;2307;48.448;9.216;2023-03-16T08:26:52;95561.81;;;3.54;100.00
4590;BME280;2307;48.448;9.216;2023-03-16T08:29:18;95563.66;;;3.60;100.00
4590;BME280;2307;48.448;9.216;2023-03-16T08:31:46;95563.91;;;3.65;100.00
4590;BME280;2307;48.448;9.216;2023-03-16T08:34:13;95565.75;;;3.71;100.00
4590;BME280;2307;48.448;9.216;2023-03-16T08:36:42;95559.59;;;3.79;100.00
4590;BME280;2307;48.448;9.216;2023-03-16T08:39:08;95559.28;;;3.89;100.00
4590;BME280;2307;48.448;9.216;2023-03-16T08:41:35;95557.91;;;3.93;100.00
4590;BME280;2307;48.448;9.216;2023-03-16T08:44:01;95556.13;;;4.00;100.00
4590;BME280;2307;48.448;9.216;2023-03-16T08:46:28;95555.41;;;4.12;100.00
4590;BME280;2307;48.448;9.216;2023-03-16T08:48:56;95548.25;;;4.21;100.00
4590;BME280;2307;48.448;9.216;2023-03-16T08:51:22;95547.44;;;4.20;100.00
4590;BME280;2307;48.448;9.216;2023-03-16T08:53:49;95551.13;;;4.33;100.00
4590;BME280;2307;48.448;9.216;2023-03-16T08:56:15;95547.75;;;4.39;98.97
4590;BME280;2307;48.448;9.216;2023-03-16T08:58:42;95545.97;;;4.46;96.63
4590;BME280;2307;48.448;9.216;2023-03-16T09:01:09;95538.34;;;4.51;98.34
4590;BME280;2307;48.448;9.216;2023-03-16T09:03:36;95536.00;;;4.62;98.99
4590;BME280;2307;48.448;9.216;2023-03-16T09:06:06;95532.41;;;4.70;93.86
4590;BME280;2307;48.448;9.216;2023-03-16T09:08:33;95530.25;;;4.80;92.94
4590;BME280;2307;48.448;9.216;2023-03-16T09:11:00;95531.69;;;4.89;93.89
4590;BME280;2307;48.448;9.216;2023-03-16T09:13:27;95532.13;;;4.99;90.32
4590;BME280;2307;48.448;9.216;2023-03-16T09:15:54;95524.28;;;5.06;90.03
4590;BME280;2307;48.448;9.216;2023-03-16T09:18:22;95541.41;;;5.08;84.17
4590;BME280;2307;48.448;9.216;2023-03-16T09:20:50;95532.97;;;5.13;86.71
4590;BME280;2307;48.448;9.216;2023-03-16T09:23:18;95531.16;;;5.13;83.71
4590;BME280;2307;48.448;9.216;2023-03-16T09:25:45;95534.19;;;5.23;84.57
4590;BME280;2307;48.448;9.216;2023-03-16T09:28:12;95524.75;;;5.22;85.04
4590;BME280;2307;48.448;9.216;2023-03-16T09:30:38;95517.31;;;5.32;85.08
4590;BME280;2307;48.448;9.216;2023-03-16T09:33:05;95508.66;;;5.45;84.65
4590;BME280;2307;48.448;9.216;2023-03-16T09:35:31;95514.50;;;5.54;80.24
4590;BME280;2307;48.448;9.216;2023-03-16T09:37:58;95517.31;;;5.59;81.84
4590;BME280;2307;48.448;9.216;2023-03-16T09:40:26;95507.66;;;5.72;72.33
4590;BME280;2307;48.448;9.216;2023-03-16T09:42:55;95507.47;;;5.74;71.22
4590;BME280;2307;48.448;9.216;2023-03-16T09:45:30;95512.72;;;5.87;68.08
4590;BME280;2307;48.448;9.216;2023-03-16T09:48:01;95511.72;;;6.01;71.24
4590;BME280;2307;48.448;9.216;2023-03-16T09:50:30;95518.53;;;6.15;72.52
4590;BME280;2307;48.448;9.216;2023-03-16T09:52:59;95508.41;;;6.38;72.38
4590;BME280;2307;48.448;9.216;2023-03-16T09:55:29;95512.84;;;6.38;66.65
4590;BME280;2307;48.448;9.216;2023-03-16T09:57:57;95510.22;;;6.45;63.68
4590;BME280;2307;48.448;9.216;2023-03-16T10:00:24;95497.72;;;6.47;61.82
4590;BME280;2307;48.448;9.216;2023-03-16T10:05:52;95487.94;;;6.67;62.10
4590;BME280;2307;48.448;9.216;2023-03-16T10:08:21;95492.72;;;6.83;63.29
4590;BME280;2307;48.448;9.216;2023-03-16T10:13:36;95482.50;;;7.06;60.61
4590;BME280;2307;48.448;9.216;2023-03-16T10:16:07;95489.06;;;7.28;60.66
4590;BME280;2307;48.448;9.216;2023-03-16T10:21:48;95494.84;;;7.37;55.51
4590;BME280;2307;48.448;9.216;2023-03-16T10:24:17;95504.34;;;7.38;57.89
4590;BME280;2307;48.448;9.216;2023-03-16T10:26:49;95500.44;;;7.47;56.94
4590;BME280;2307;48.448;9.216;2023-03-16T10:29:20;95513.13;;;7.57;55.39
4590;BME280;2307;48.448;9.216;2023-03-16T10:31:47;95513.13;;;7.57;54.31
4590;BME280;2307;48.448;9.216;2023-03-16T10:34:13;95504.56;;;7.61;53.80
4590;BME280;2307;48.448;9.216;2023-03-16T10:36:41;95507.81;;;7.63;54.47
4590;BME280;2307;48.448;9.216;2023-03-16T10:39:10;95491.66;;;7.84;57.17
4590;BME280;2307;48.448;9.216;2023-03-16T10:41:38;95493.53;;;8.02;52.89
4590;BME280;2307;48.448;9.216;2023-03-16T10:44:08;95490.34;;;8.18;52.86
4590;BME280;2307;48.448;9.216;2023-03-16T10:46:38;95490.16;;;8.38;54.76
4590;BME280;2307;48.448;9.216;2023-03-16T10:49:04;95505.91;;;8.63;53.38
4590;BME280;2307;48.448;9.216;2023-03-16T10:51:33;95517.06;;;8.94;51.22
4590;BME280;2307;48.448;9.216;2023-03-16T10:54:06;95505.56;;;9.07;53.95
4590;BME280;2307;48.448;9.216;2023-03-16T10:56:34;95505.41;;;9.20;49.03
4590;BME280;2307;48.448;9.216;2023-03-16T10:59:01;95487.13;;;9.37;50.45
4590;BME280;2307;48.448;9.216;2023-03-16T11:01:38;95490.56;;;9.79;51.16
4590;BME280;2307;48.448;9.216;2023-03-16T11:04:10;95466.69;;;9.74;48.22
4590;BME280;2307;48.448;9.216;2023-03-16T11:06:45;95465.81;;;9.91;48.77
4590;BME280;2307;48.448;9.216;2023-03-16T11:09:12;95468.31;;;9.98;47.52
4590;BME280;2307;48.448;9.216;2023-03-16T11:11:45;95464.22;;;10.02;48.17
4590;BME280;2307;48.448;9.216;2023-03-16T11:14:12;95450.91;;;10.32;47.19
4590;BME280;2307;48.448;9.216;2023-03-16T11:16:41;95460.16;;;10.57;47.04
4590;BME280;2307;48.448;9.216;2023-03-16T11:19:11;95469.91;;;10.69;46.75
4590;BME280;2307;48.448;9.216;2023-03-16T11:21:44;95461.56;;;10.48;45.43
4590;BME280;2307;48.448;9.216;2023-03-16T11:24:16;95465.66;;;10.56;44.57
4590;BME280;2307;48.448;9.216;2023-03-16T11:26:45;95473.00;;;10.77;46.34
4590;BME280;2307;48.448;9.216;2023-03-16T11:29:18;95468.53;;;11.06;46.08
4590;BME280;2307;48.448;9.216;2023-03-16T11:31:49;95461.53;;;11.28;44.71
4590;BME280;2307;48.448;9.216;2023-03-16T11:34:18;95458.72;;;11.18;44.08
4590;BME280;2307;48.448;9.216;2023-03-16T11:36:46;95460.81;;;11.16;44.26
4590;BME280;2307;48.448;9.216;2023-03-16T11:39:17;95458.22;;;11.49;44.74
4590;BME280;2307;48.448;9.216;2023-03-16T11:41:48;95453.78;;;12.00;44.94
4590;BME280;2307;48.448;9.216;2023-03-16T11:44:18;95453.44;;;11.96;42.00
4590;BME280;2307;48.448;9.216;2023-03-16T11:46:54;95442.84;;;11.80;40.98
4590;BME280;2307;48.448;9.216;2023-03-16T11:49:30;95444.31;;;12.04;42.39
4590;BME280;2307;48.448;9.216;2023-03-16T11:51:59;95437.41;;;11.69;41.57
4590;BME280;2307;48.448;9.216;2023-03-16T11:54:34;95440.47;;;11.95;42.84
4590;BME280;2307;48.448;9.216;2023-03-16T11:57:10;95441.34;;;11.84;40.76
4590;BME280;2307;48.448;9.216;2023-03-16T11:59:47;95439.25;;;11.69;40.35
4590;BME280;2307;48.448;9.216;2023-03-16T12:02:28;95428.69;;;11.86;40.93
4590;BME280;2307;48.448;9.216;2023-03-16T12:05:05;95435.00;;;11.85;40.40
4590;BME280;2307;48.448;9.216;2023-03-16T12:07:40;95428.44;;;12.04;40.52
4590;BME280;2307;48.448;9.216;2023-03-16T12:10:14;95425.56;;;11.89;40.04
4590;BME280;2307;48.448;9.216;2023-03-16T12:12:50;95427.63;;;11.87;39.47
4590;BME280;2307;48.448;9.216;2023-03-16T12:15:28;95431.81;;;11.83;39.18
4590;BME280;2307;48.448;9.216;2023-03-16T12:17:59;95424.44;;;12.61;40.48
4590;BME280;2307;48.448;9.216;2023-03-16T12:20:28;95428.75;;;12.89;40.13
4590;BME280;2307;48.448;9.216;2023-03-16T12:22:57;95419.69;;;12.63;39.02
4590;BME280;2307;48.448;9.216;2023-03-16T12:25:25;95421.56;;;12.46;37.77
4590;BME280;2307;48.448;9.216;2023-03-16T12:27:54;95435.53;;;12.20;38.50
4590;BME280;2307;48.448;9.216;2023-03-16T12:30:23;95428.25;;;12.10;38.54
4590;BME280;2307;48.448;9.216;2023-03-16T12:32:56;95423.69;;;12.44;37.57
4590;BME280;2307;48.448;9.216;2023-03-16T12:35:29;95417.28;;;12.84;38.71
4590;BME280;2307;48.448;9.216;2023-03-16T12:38:07;95405.38;;;12.86;37.78
4590;BME280;2307;48.448;9.216;2023-03-16T12:40:41;95399.19;;;13.24;36.94
4590;BME280;2307;48.448;9.216;2023-03-16T12:43:21;95391.56;;;13.06;36.47
4590;BME280;2307;48.448;9.216;2023-03-16T12:46:04;95396.06;;;13.05;37.20
4590;BME280;2307;48.448;9.216;2023-03-16T12:48:32;95397.66;;;12.85;37.24
4590;BME280;2307;48.448;9.216;2023-03-16T12:51:03;95388.72;;;12.91;36.95
4590;BME280;2307;48.448;9.216;2023-03-16T12:53:40;95394.34;;;13.16;37.15
4590;BME280;2307;48.448;9.216;2023-03-16T12:56:08;95400.22;;;13.23;35.82
4590;BME280;2307;48.448;9.216;2023-03-16T12:58:38;95407.16;;;13.02;37.03
4590;BME280;2307;48.448;9.216;2023-03-16T13:01:06;95404.53;;;13.29;37.15
4590;BME280;2307;48.448;9.216;2023-03-16T13:03:35;95401.38;;;13.32;36.14
4590;BME280;2307;48.448;9.216;2023-03-16T13:06:03;95403.50;;;13.35;36.13
4590;BME280;2307;48.448;9.216;2023-03-16T13:08:39;95397.66;;;13.33;34.74
4590;BME280;2307;48.448;9.216;2023-03-16T13:11:07;95393.28;;;13.80;35.77
4590;BME280;2307;48.448;9.216;2023-03-16T13:13:34;95392.97;;;13.72;35.49
4590;BME280;2307;48.448;9.216;2023-03-16T13:16:02;95387.88;;;13.65;36.24
4590;BME280;2307;48.448;9.216;2023-03-16T13:18:34;95391.81;;;13.95;35.63
4590;BME280;2307;48.448;9.216;2023-03-16T13:21:13;95392.78;;;14.25;35.20
4590;BME280;2307;48.448;9.216;2023-03-16T13:23:53;95398.69;;;13.91;35.54
4590;BME280;2307;48.448;9.216;2023-03-16T13:26:37;95396.25;;;14.31;35.28
4590;BME280;2307;48.448;9.216;2023-03-16T13:29:05;95394.63;;;14.20;35.30
4590;BME280;2307;48.448;9.216;2023-03-16T13:31:36;95391.47;;;14.28;35.28
4590;BME280;2307;48.448;9.216;2023-03-16T13:34:05;95392.13;;;14.45;34.09
4590;BME280;2307;48.448;9.216;2023-03-16T13:36:34;95384.13;;;14.40;34.93
4590;BME280;2307;48.448;9.216;2023-03-16T13:39:03;95385.34;;;14.84;35.53
4590;BME280;2307;48.448;9.216;2023-03-16T13:41:30;95385.44;;;15.15;34.01
4590;BME280;2307;48.448;9.216;2023-03-16T13:43:57;95382.53;;;15.06;35.22
4590;BME280;2307;48.448;9.216;2023-03-16T13:46:26;95381.31;;;14.72;34.89